createdAt,value
2023-03-06T00:01:08.753Z,100079.97
2023-03-06T00:03:36.036Z,100069.59
2023-03-06T00:06:03.225Z,100068.59
2023-03-06T00:08:30.639Z,100069.41
2023-03-06T00:10:57.986Z,100071.44
2023-03-06T00:13:26.656Z,100060.88
2023-03-06T00:15:54.084Z,100057.63
2023-03-06T00:18:21.147Z,100057.41
2023-03-06T00:20:48.059Z,100054.97
2023-03-06T00:23:15.039Z,100045.00
2023-03-06T00:25:45.866Z,100049.47
2023-03-06T00:28:15.920Z,100047.84
2023-03-06T00:30:43.759Z,100052.31
2023-03-06T00:33:11.213Z,100048.06
2023-03-06T00:35:40.156Z,100049.69
2023-03-06T00:38:07.816Z,100035.47
2023-03-06T00:40:34.810Z,100028.16
2023-03-06T00:43:01.982Z,100033.03
2023-03-06T00:45:29.982Z,100029.19
2023-03-06T00:47:57.155Z,100011.91
2023-03-06T00:50:24.830Z,100015.97
2023-03-06T00:52:52.495Z,100019.66
2023-03-06T00:55:19.630Z,100009.28
2023-03-06T00:57:46.623Z,99992.38
2023-03-06T01:00:14.142Z,99997.06
2023-03-06T01:02:41.881Z,99991.59
2023-03-06T01:05:10.230Z,100000.97
2023-03-06T01:07:37.826Z,99987.75
2023-03-06T01:10:07.807Z,99980.44
2023-03-06T01:12:35.122Z,99979.19
2023-03-06T01:15:02.302Z,99967.59
2023-03-06T01:17:29.379Z,99964.75
2023-03-06T01:19:57.684Z,99960.91
2023-03-06T01:22:24.898Z,99939.94
2023-03-06T01:24:53.128Z,99936.72
2023-03-06T01:27:21.618Z,99934.88
2023-03-06T01:29:48.524Z,99936.91
2023-03-06T01:32:15.988Z,99929.41
2023-03-06T01:34:43.156Z,99930.00
2023-03-06T01:37:09.999Z,99915.38
2023-03-06T01:39:36.911Z,99915.97
2023-03-06T01:42:05.157Z,99912.09
2023-03-06T01:44:32.236Z,99911.50
2023-03-06T01:47:02.296Z,99909.28
2023-03-06T01:49:35.111Z,99909.06
2023-03-06T01:52:09.719Z,99899.09
2023-03-06T01:54:43.365Z,99895.03
2023-03-06T01:57:17.963Z,99889.75
2023-03-06T01:59:48.552Z,99884.69
2023-03-06T02:02:16.399Z,99882.22
2023-03-06T02:04:44.109Z,99873.84
2023-03-06T02:07:12.128Z,99874.88
2023-03-06T02:09:39.183Z,99872.00
2023-03-06T02:12:10.221Z,99878.72
2023-03-06T02:14:39.079Z,99871.00
2023-03-06T02:17:07.432Z,99865.72
2023-03-06T02:20:16.002Z,99877.09
2023-03-06T02:23:11.362Z,99851.88
2023-03-06T02:25:47.457Z,99864.31
2023-03-06T02:28:19.850Z,99866.94
2023-03-06T02:30:49.901Z,99851.88
2023-03-06T02:33:21.072Z,99864.69
2023-03-06T02:35:58.149Z,99844.34
2023-03-06T02:38:37.907Z,99842.69
2023-03-06T02:41:08.987Z,99838.84
2023-03-06T02:43:39.140Z,99839.22
2023-03-06T02:46:06.325Z,99833.72
2023-03-06T02:48:33.458Z,99841.22
2023-03-06T02:51:00.898Z,99827.16
2023-03-06T02:53:27.979Z,99824.44
2023-03-06T02:55:55.073Z,99827.47
2023-03-06T02:58:22.107Z,99829.31
2023-03-06T03:00:49.736Z,99825.16
2023-03-06T03:03:17.900Z,99825.16
2023-03-06T03:05:45.014Z,99821.50
2023-03-06T03:08:19.683Z,99820.25
2023-03-06T03:10:48.367Z,99818.56
2023-03-06T03:13:15.456Z,99814.84
2023-03-06T03:15:42.751Z,99807.72
2023-03-06T03:18:11.884Z,99823.78
2023-03-06T03:20:42.904Z,99806.28
2023-03-06T03:23:10.055Z,99802.81
2023-03-06T03:25:37.175Z,99814.00
2023-03-06T03:28:04.558Z,99807.09
2023-03-06T03:30:31.644Z,99803.56
2023-03-06T03:32:58.714Z,99807.03
2023-03-06T03:35:26.649Z,99799.69
2023-03-06T03:37:55.122Z,99803.72
2023-03-06T03:40:22.927Z,99801.66
2023-03-06T03:42:51.211Z,99799.41
2023-03-06T03:45:19.299Z,99794.31
2023-03-06T03:47:46.295Z,99797.78
2023-03-06T03:50:13.832Z,99796.53
2023-03-06T03:52:41.004Z,99793.06
2023-03-06T03:55:08.727Z,99795.88
2023-03-06T03:57:39.064Z,99788.97
2023-03-06T04:00:08.553Z,99787.94
2023-03-06T04:02:47.310Z,99795.59
2023-03-06T04:05:25.251Z,99798.91
2023-03-06T04:07:52.348Z,99788.31
2023-03-06T04:10:20.367Z,99788.91
2023-03-06T04:12:47.249Z,99788.44
2023-03-06T04:15:14.417Z,99796.31
2023-03-06T04:17:41.641Z,99791.19
2023-03-06T04:20:14.571Z,99797.66
2023-03-06T04:22:42.085Z,99801.47
2023-03-06T04:25:10.389Z,99808.97
2023-03-06T04:27:37.608Z,99796.56
2023-03-06T04:30:07.384Z,99816.28
2023-03-06T04:32:35.814Z,99801.84
2023-03-06T04:35:03.709Z,99818.69
2023-03-06T04:37:35.666Z,99813.63
2023-03-06T04:40:03.347Z,99819.72
2023-03-06T04:42:30.379Z,99812.81
2023-03-06T04:44:57.416Z,99819.94
2023-03-06T04:47:24.461Z,99829.50
2023-03-06T04:49:51.482Z,99828.72
2023-03-06T04:52:18.515Z,99819.56
2023-03-06T04:54:46.075Z,99824.88
2023-03-06T04:57:14.111Z,99828.56
2023-03-06T04:59:41.155Z,99829.00
2023-03-06T05:02:08.504Z,99824.13
2023-03-06T05:04:35.525Z,99820.09
2023-03-06T05:07:02.481Z,99823.56
2023-03-06T05:09:29.399Z,99828.47
2023-03-06T05:11:56.507Z,99814.88
2023-03-06T05:14:23.463Z,99825.47
2023-03-06T05:16:50.586Z,99832.38
2023-03-06T05:19:17.966Z,99826.28
2023-03-06T05:21:45.010Z,99831.19
2023-03-06T05:24:12.112Z,99838.16
2023-03-06T05:26:39.301Z,99836.56
2023-03-06T05:29:06.579Z,99843.97
2023-03-06T05:31:33.720Z,99830.56
2023-03-06T05:34:00.738Z,99839.91
2023-03-06T05:36:27.722Z,99838.06
2023-03-06T05:38:54.841Z,99832.63
2023-03-06T05:41:21.815Z,99843.00
2023-03-06T05:43:48.958Z,99835.88
2023-03-06T05:46:16.180Z,99850.13
2023-03-06T05:48:44.176Z,99842.84
2023-03-06T05:51:11.988Z,99846.31
2023-03-06T05:53:38.961Z,99841.88
2023-03-06T05:56:10.821Z,99850.41
2023-03-06T05:58:38.245Z,99847.16
2023-03-06T06:01:20.336Z,99843.56
2023-03-06T06:03:47.635Z,99852.69
2023-03-06T06:06:15.629Z,99843.56
2023-03-06T06:08:43.191Z,99853.91
2023-03-06T06:11:12.496Z,99853.06
2023-03-06T06:13:40.280Z,99854.66
2023-03-06T06:16:16.578Z,99850.41
2023-03-06T06:18:43.568Z,99847.97
2023-03-06T06:21:12.058Z,99854.50
2023-03-06T06:23:39.032Z,99861.66
2023-03-06T06:26:08.573Z,99853.13
2023-03-06T06:28:36.230Z,99862.25
2023-03-06T06:31:10.638Z,99865.09
2023-03-06T06:33:38.926Z,99860.25
2023-03-06T06:36:06.394Z,99865.91
2023-03-06T06:38:34.286Z,99847.41
2023-03-06T06:41:35.623Z,99869.75
2023-03-06T06:43:51.768Z,99864.91
2023-03-06T06:46:56.177Z,99865.31
2023-03-06T06:49:06.326Z,99871.78
2023-03-06T06:51:34.643Z,99869.97
2023-03-06T06:54:02.055Z,99862.63
2023-03-06T06:56:29.095Z,99871.38
2023-03-06T06:59:15.355Z,99872.38
2023-03-06T07:01:43.325Z,99868.50
2023-03-06T07:04:13.359Z,99868.72
2023-03-06T07:06:42.723Z,99870.94
2023-03-06T07:09:10.127Z,99872.94
2023-03-06T07:11:39.088Z,99869.69
2023-03-06T07:14:06.242Z,99872.94
2023-03-06T07:16:33.351Z,99875.16
2023-03-06T07:19:00.337Z,99870.44
2023-03-06T07:21:27.833Z,99859.84
2023-03-06T07:23:57.686Z,99877.06
2023-03-06T07:26:26.781Z,99869.50
2023-03-06T07:28:54.822Z,99876.44
2023-03-06T07:31:25.735Z,99864.97
2023-03-06T07:33:54.369Z,99870.63
2023-03-06T07:36:23.630Z,99874.53
2023-03-06T07:38:50.645Z,99873.06
2023-03-06T07:41:21.217Z,99874.25
2023-03-06T07:43:49.782Z,99873.81
2023-03-06T07:46:17.580Z,99880.28
2023-03-06T07:48:44.879Z,99872.78
2023-03-06T07:51:21.352Z,99884.25
2023-03-06T07:53:49.119Z,99872.84
2023-03-06T07:56:16.339Z,99869.84
2023-03-06T07:58:46.041Z,99884.06
2023-03-06T08:01:20.032Z,99881.72
2023-03-06T08:03:49.955Z,99885.16
2023-03-06T08:06:26.217Z,99876.75
2023-03-06T08:08:55.665Z,99881.63
2023-03-06T08:11:26.987Z,99873.06
2023-03-06T08:13:55.258Z,99890.00
2023-03-06T08:16:28.740Z,99880.34
2023-03-06T08:18:57.679Z,99876.00
2023-03-06T08:21:27.567Z,99881.22
2023-03-06T08:23:55.617Z,99868.53
2023-03-06T08:26:30.722Z,99883.94
2023-03-06T08:29:05.805Z,99875.97
2023-03-06T08:31:42.036Z,99870.88
2023-03-06T08:34:18.332Z,99888.19
2023-03-06T08:36:45.417Z,99873.78
2023-03-06T08:39:14.153Z,99882.53
2023-03-06T08:41:44.690Z,99884.75
2023-03-06T08:44:12.487Z,99879.06
2023-03-06T08:46:39.847Z,99884.38
2023-03-06T08:49:06.786Z,99888.06
2023-03-06T08:51:33.989Z,99891.75
2023-03-06T08:54:01.017Z,99888.38
2023-03-06T08:56:32.065Z,99892.06
2023-03-06T08:59:01.666Z,99888.44
2023-03-06T09:01:33.090Z,99898.59
2023-03-06T09:04:03.009Z,99906.56
2023-03-06T09:06:34.388Z,99903.69
2023-03-06T09:09:01.368Z,99909.00
2023-03-06T09:11:28.458Z,99898.09
2023-03-06T09:13:56.734Z,99908.03
2023-03-06T09:16:24.722Z,99916.81
2023-03-06T09:18:52.964Z,99903.41
2023-03-06T09:21:24.848Z,99910.91
2023-03-06T09:23:52.314Z,99913.34
2023-03-06T09:26:19.984Z,99905.84
2023-03-06T09:28:47.179Z,99905.59
2023-03-06T09:31:18.280Z,99896.63
2023-03-06T09:33:45.654Z,99900.31
2023-03-06T09:36:21.740Z,99896.84
2023-03-06T09:38:49.775Z,99897.28
2023-03-06T09:41:34.399Z,99902.81
2023-03-06T09:44:14.935Z,99912.81
2023-03-06T09:47:00.997Z,99897.53
2023-03-06T09:49:59.021Z,99912.97
2023-03-06T09:53:02.708Z,99921.00
2023-03-06T09:55:33.741Z,99917.56
2023-03-06T09:58:23.799Z,99899.97
2023-03-06T10:01:26.245Z,99904.66
2023-03-06T10:04:34.796Z,99902.06
2023-03-06T10:07:18.495Z,99914.06
2023-03-06T10:10:00.414Z,99920.19
2023-03-06T10:12:33.098Z,99912.66
2023-03-06T10:15:15.071Z,99907.38
2023-03-06T10:17:43.756Z,99915.53
2023-03-06T10:20:28.586Z,99902.50
2023-03-06T10:23:37.510Z,99904.50
2023-03-06T10:26:24.149Z,99904.50
2023-03-06T10:29:14.658Z,99906.72
2023-03-06T10:31:49.528Z,99907.75
2023-03-06T10:34:23.684Z,99914.22
2023-03-06T10:36:51.014Z,99910.75
2023-03-06T10:39:23.237Z,99918.53
2023-03-06T10:41:50.311Z,99913.25
2023-03-06T10:44:19.818Z,99908.63
2023-03-06T10:46:51.498Z,99914.94
2023-03-06T10:49:35.614Z,99909.25
2023-03-06T10:52:04.233Z,99910.66
2023-03-06T10:54:36.232Z,99911.91
2023-03-06T10:57:29.556Z,99912.28
2023-03-06T11:00:05.529Z,99919.06
2023-03-06T11:02:41.038Z,99909.25
2023-03-06T11:05:20.152Z,99911.09
2023-03-06T11:07:57.335Z,99921.47
2023-03-06T11:10:24.504Z,99924.34
2023-03-06T11:13:21.534Z,99921.91
2023-03-06T11:16:02.395Z,99903.59
2023-03-06T11:18:39.766Z,99898.53
2023-03-06T11:21:27.101Z,99915.81
2023-03-06T11:23:57.967Z,99908.25
2023-03-06T11:26:32.798Z,99900.22
2023-03-06T11:29:24.412Z,99907.72
2023-03-06T11:32:00.625Z,99894.97
2023-03-06T11:35:16.441Z,99907.16
2023-03-06T11:37:51.144Z,99902.03
2023-03-06T11:40:27.736Z,99894.72
2023-03-06T11:43:17.374Z,99891.41
2023-03-06T11:46:07.340Z,99891.91
2023-03-06T11:48:46.668Z,99892.66
2023-03-06T11:51:30.778Z,99892.00
2023-03-06T11:54:01.486Z,99888.66
2023-03-06T11:56:46.101Z,99882.94
2023-03-06T11:59:25.054Z,99885.13
2023-03-06T12:02:25.039Z,99882.94
2023-03-06T12:05:31.018Z,99875.34
2023-03-06T12:08:25.858Z,99884.47
2023-03-06T12:11:24.607Z,99877.81
2023-03-06T12:13:56.872Z,99875.53
2023-03-06T12:16:46.469Z,99880.06
2023-03-06T12:19:30.732Z,99886.00
2023-03-06T12:22:26.716Z,99876.03
2023-03-06T12:25:20.715Z,99870.41
2023-03-06T12:28:39.901Z,99867.88
2023-03-06T12:31:41.028Z,99869.50
2023-03-06T12:34:46.516Z,99868.59
2023-03-06T12:37:35.185Z,99880.16
2023-03-06T12:40:16.809Z,99875.66
2023-03-06T12:43:10.369Z,99873.50
2023-03-06T12:45:38.863Z,99865.19
2023-03-06T12:48:21.117Z,99859.84
2023-03-06T12:50:48.842Z,99860.34
2023-03-06T12:53:33.140Z,99856.97
2023-03-06T12:56:03.081Z,99857.41
2023-03-06T12:58:30.210Z,99859.56
2023-03-06T13:01:04.245Z,99860.25
2023-03-06T13:04:05.642Z,99863.75
2023-03-06T13:06:51.468Z,99859.47
2023-03-06T13:09:55.763Z,99852.63
2023-03-06T13:12:55.763Z,99852.88
2023-03-06T13:15:43.381Z,99839.34
2023-03-06T13:18:36.707Z,99842.31
2023-03-06T13:21:04.576Z,99841.75
2023-03-06T13:23:38.253Z,99840.75
2023-03-06T13:26:31.210Z,99845.00
2023-03-06T13:28:58.678Z,99833.16
2023-03-06T13:31:36.437Z,99832.91
2023-03-06T13:34:26.607Z,99833.22
2023-03-06T13:36:53.561Z,99823.94
2023-03-06T13:39:20.449Z,99831.47
2023-03-06T13:42:00.982Z,99826.97
2023-03-06T13:44:28.315Z,99821.66
2023-03-06T13:47:02.039Z,99823.84
2023-03-06T13:49:29.951Z,99824.53
2023-03-06T13:52:26.427Z,99829.28
2023-03-06T13:55:17.911Z,99823.25
2023-03-06T13:58:23.860Z,99828.75
2023-03-06T14:01:15.979Z,99821.38
2023-03-06T14:04:09.126Z,99821.97
2023-03-06T14:06:35.979Z,99822.25
2023-03-06T14:09:24.524Z,99819.31
2023-03-06T14:12:14.326Z,99836.72
2023-03-06T14:14:51.136Z,99825.31
2023-03-06T14:17:35.723Z,99830.88
2023-03-06T14:20:18.258Z,99815.78
2023-03-06T14:22:45.371Z,99810.41
2023-03-06T14:25:29.708Z,99816.84
2023-03-06T14:28:05.663Z,99806.44
2023-03-06T14:30:52.888Z,99811.78
2023-03-06T14:33:50.661Z,99809.44
2023-03-06T14:36:20.819Z,99817.53
2023-03-06T14:38:59.421Z,99800.22
2023-03-06T14:41:33.498Z,99811.25
2023-03-06T14:44:26.441Z,99800.00
2023-03-06T14:46:57.132Z,99811.53
2023-03-06T14:49:26.010Z,99809.13
2023-03-06T14:51:56.746Z,99795.97
2023-03-06T14:54:31.492Z,99792.22
2023-03-06T14:57:14.970Z,99798.66
2023-03-06T14:59:57.086Z,99794.66
2023-03-06T15:02:29.914Z,99794.91
2023-03-06T15:05:30.440Z,99791.66
2023-03-06T15:08:03.348Z,99790.81
2023-03-06T15:10:35.141Z,99798.31
2023-03-06T15:13:22.670Z,99801.53
2023-03-06T15:16:12.931Z,99791.84
2023-03-06T15:18:56.057Z,99795.31
2023-03-06T15:21:26.548Z,99799.84
2023-03-06T15:23:57.112Z,99795.72
2023-03-06T15:26:34.425Z,99792.06
2023-03-06T15:29:10.904Z,99791.94
2023-03-06T15:31:45.051Z,99798.75
2023-03-06T15:34:12.277Z,99790.69
2023-03-06T15:36:48.386Z,99792.09
2023-03-06T15:39:30.784Z,99780.66
2023-03-06T15:42:19.190Z,99786.41
2023-03-06T15:44:53.388Z,99784.94
2023-03-06T15:47:22.229Z,99782.06
2023-03-06T15:49:52.073Z,99786.13
2023-03-06T15:52:21.013Z,99774.53
2023-03-06T15:54:48.951Z,99784.09
2023-03-06T15:57:23.601Z,99780.03
2023-03-06T15:59:51.259Z,99782.63
2023-03-06T16:02:21.818Z,99783.47
2023-03-06T16:04:49.526Z,99784.66
2023-03-06T16:07:16.738Z,99777.72
2023-03-06T16:09:43.927Z,99781.88
2023-03-06T16:12:17.421Z,99774.63
2023-03-06T16:14:47.400Z,99775.13
2023-03-06T16:17:15.037Z,99779.91
2023-03-06T16:19:43.119Z,99787.03
2023-03-06T16:22:10.168Z,99786.56
2023-03-06T16:24:37.339Z,99777.72
2023-03-06T16:27:04.855Z,99780.72
2023-03-06T16:29:32.223Z,99775.34
2023-03-06T16:32:01.582Z,99778.19
2023-03-06T16:34:28.839Z,99786.41
2023-03-06T16:36:55.803Z,99769.44
2023-03-06T16:39:24.305Z,99783.72
2023-03-06T16:41:51.847Z,99780.34
2023-03-06T16:44:20.265Z,99779.34
2023-03-06T16:46:49.632Z,99782.88
2023-03-06T16:49:23.385Z,99787.41
2023-03-06T16:51:51.328Z,99785.81
2023-03-06T16:54:18.713Z,99786.53
2023-03-06T16:56:46.186Z,99789.88
2023-03-06T16:59:13.466Z,99792.94
2023-03-06T17:01:44.858Z,99793.63
2023-03-06T17:04:12.065Z,99779.97
2023-03-06T17:06:39.798Z,99791.75
2023-03-06T17:09:07.208Z,99802.06
2023-03-06T17:11:38.412Z,99808.84
2023-03-06T17:14:06.973Z,99814.81
2023-03-06T17:16:36.425Z,99821.97
2023-03-06T17:19:03.763Z,99821.63
2023-03-06T17:21:30.876Z,99820.31
2023-03-06T17:23:57.881Z,99830.19
2023-03-06T17:26:25.216Z,99823.41
2023-03-06T17:28:52.255Z,99827.97
2023-03-06T17:31:22.877Z,99835.50
2023-03-06T17:33:51.379Z,99844.06
2023-03-06T17:36:19.312Z,99831.81
2023-03-06T17:38:47.142Z,99841.94
2023-03-06T17:41:14.334Z,99842.25
2023-03-06T17:43:41.814Z,99839.72
2023-03-06T17:46:12.413Z,99836.41
2023-03-06T17:48:39.992Z,99843.44
2023-03-06T17:51:07.747Z,99845.38
2023-03-06T17:53:35.746Z,99847.88
2023-03-06T17:56:08.743Z,99855.28
2023-03-06T17:58:36.049Z,99851.34
2023-03-06T18:01:16.687Z,99849.97
2023-03-06T18:03:45.858Z,99865.88
2023-03-06T18:06:12.976Z,99856.38
2023-03-06T18:08:40.975Z,99848.31
2023-03-06T18:11:09.926Z,99856.44
2023-03-06T18:13:41.212Z,99858.53
2023-03-06T18:16:09.098Z,99865.03
2023-03-06T18:18:36.286Z,99860.19
2023-03-06T18:21:12.123Z,99870.16
2023-03-06T18:23:40.306Z,99849.25
2023-03-06T18:26:14.251Z,99862.66
2023-03-06T18:28:44.452Z,99855.41
2023-03-06T18:31:37.261Z,99861.31
2023-03-06T18:34:11.543Z,99853.81
2023-03-06T18:36:40.130Z,99853.22
2023-03-06T18:39:09.699Z,99856.69
2023-03-06T18:41:37.696Z,99854.69
2023-03-06T18:44:05.861Z,99855.09
2023-03-06T18:46:36.605Z,99853.28
2023-03-06T18:49:04.746Z,99857.97
2023-03-06T18:51:32.029Z,99854.53
2023-03-06T18:54:02.158Z,99860.81
2023-03-06T18:56:29.137Z,99856.56
2023-03-06T18:58:56.481Z,99857.78
2023-03-06T19:01:23.871Z,99851.28
2023-03-06T19:03:50.914Z,99851.28
2023-03-06T19:06:18.439Z,99864.28
2023-03-06T19:08:45.377Z,99852.72
2023-03-06T19:11:17.292Z,99865.09
2023-03-06T19:13:45.094Z,99864.91
2023-03-06T19:16:23.757Z,99863.69
2023-03-06T19:18:53.224Z,99862.47
2023-03-06T19:21:22.777Z,99862.69
2023-03-06T19:23:50.029Z,99850.91
2023-03-06T19:26:21.813Z,99863.69
2023-03-06T19:28:49.702Z,99857.81
2023-03-06T19:31:20.802Z,99856.38
2023-03-06T19:33:49.573Z,99855.16
2023-03-06T19:36:18.533Z,99861.25
2023-03-06T19:38:50.252Z,99863.28
2023-03-06T19:41:17.168Z,99846.25
2023-03-06T19:43:53.021Z,99842.59
2023-03-06T19:46:22.100Z,99848.28
2023-03-06T19:48:54.215Z,99849.09
2023-03-06T19:51:21.229Z,99848.69
2023-03-06T19:53:48.215Z,99847.88
2023-03-06T19:56:20.516Z,99836.31
2023-03-06T19:58:48.534Z,99839.75
2023-03-06T20:01:19.430Z,99849.50
2023-03-06T20:03:46.997Z,99840.97
2023-03-06T20:06:18.430Z,99849.09
2023-03-06T20:08:48.839Z,99839.16
2023-03-06T20:11:19.875Z,99847.06
2023-03-06T20:13:47.828Z,99843.59
2023-03-06T20:16:16.221Z,99841.38
2023-03-06T20:18:44.050Z,99837.31
2023-03-06T20:21:11.350Z,99837.72
2023-03-06T20:23:38.350Z,99839.34
2023-03-06T20:26:12.310Z,99833.47
2023-03-06T20:28:41.423Z,99840.16
2023-03-06T20:31:16.816Z,99844.41
2023-03-06T20:33:50.052Z,99833.81
2023-03-06T20:36:33.882Z,99827.13
2023-03-06T20:39:04.819Z,99828.16
2023-03-06T20:41:32.943Z,99822.88
2023-03-06T20:44:02.561Z,99831.59
2023-03-06T20:46:30.185Z,99821.25
2023-03-06T20:48:58.309Z,99818.00
2023-03-06T20:51:31.429Z,99820.44
2023-03-06T20:54:01.260Z,99812.13
2023-03-06T20:56:31.621Z,99798.34
2023-03-06T20:58:59.103Z,99798.34
2023-03-06T21:01:30.316Z,99802.59
2023-03-06T21:03:58.493Z,99804.63
2023-03-06T21:06:28.153Z,99799.56
2023-03-06T21:08:56.844Z,99797.13
2023-03-06T21:11:24.995Z,99792.66
2023-03-06T21:13:52.859Z,99792.06
2023-03-06T21:16:22.827Z,99789.63
2023-03-06T21:18:50.044Z,99792.25
2023-03-06T21:21:24.041Z,99799.75
2023-03-06T21:23:51.384Z,99792.84
2023-03-06T21:26:24.737Z,99799.94
2023-03-06T21:28:52.529Z,99786.38
2023-03-06T21:31:21.183Z,99784.53
2023-03-06T21:33:49.270Z,99782.91
2023-03-06T21:36:18.673Z,99776.84
2023-03-06T21:38:47.722Z,99767.31
2023-03-06T21:41:23.991Z,99769.13
2023-03-06T21:44:00.550Z,99753.31
2023-03-06T21:46:28.433Z,99760.22
2023-03-06T21:48:56.587Z,99757.38
2023-03-06T21:51:25.632Z,99764.06
2023-03-06T21:53:53.877Z,99764.66
2023-03-06T21:56:24.943Z,99757.16
2023-03-06T21:58:52.644Z,99759.59
2023-03-06T22:01:27.128Z,99769.94
2023-03-06T22:03:55.385Z,99767.31
2023-03-06T22:06:25.767Z,99763.03
2023-03-06T22:08:55.228Z,99759.19
2023-03-06T22:11:24.328Z,99764.06
2023-03-06T22:13:53.304Z,99754.72
2023-03-06T22:16:20.820Z,99753.13
2023-03-06T22:18:50.420Z,99752.09
2023-03-06T22:21:20.492Z,99749.66
2023-03-06T22:23:53.173Z,99741.16
2023-03-06T22:26:20.805Z,99738.53
2023-03-06T22:28:47.960Z,99726.16
2023-03-06T22:31:23.866Z,99731.22
2023-03-06T22:33:55.811Z,99724.75
2023-03-06T22:36:24.666Z,99725.97
2023-03-06T22:38:57.039Z,99730.81
2023-03-06T22:41:28.567Z,99728.78
2023-03-06T22:43:57.850Z,99723.94
2023-03-06T22:46:25.768Z,99713.00
2023-03-06T22:48:59.337Z,99714.41
2023-03-06T22:51:28.080Z,99707.91
2023-03-06T22:53:55.624Z,99698.81
2023-03-06T22:56:23.377Z,99702.03
2023-03-06T22:58:50.501Z,99696.97
2023-03-06T23:01:19.486Z,99695.34
2023-03-06T23:03:49.851Z,99687.66
2023-03-06T23:06:43.104Z,99673.88
2023-03-06T23:09:15.830Z,99680.97
2023-03-06T23:12:01.410Z,99675.50
2023-03-06T23:14:49.617Z,99664.91
2023-03-06T23:17:35.264Z,99661.72
2023-03-06T23:20:21.212Z,99665.72
2023-03-06T23:23:07.414Z,99671.78
2023-03-06T23:25:44.626Z,99656.59
2023-03-06T23:28:12.160Z,99669.34
2023-03-06T23:30:40.209Z,99664.06
2023-03-06T23:33:08.489Z,99663.66
2023-03-06T23:35:37.760Z,99664.44
2023-03-06T23:38:05.140Z,99657.16
2023-03-06T23:40:34.534Z,99663.66
2023-03-06T23:43:01.948Z,99653.53
2023-03-06T23:45:29.140Z,99660.84
2023-03-06T23:47:56.569Z,99658.63
2023-03-06T23:50:24.632Z,99653.97
2023-03-06T23:52:53.309Z,99661.72
2023-03-06T23:55:20.787Z,99643.28
2023-03-06T23:57:47.746Z,99645.94
